createdAt,value
2023-02-10T00:00:01.803Z,96949.34
2023-02-10T00:03:44.769Z,96952.66
2023-02-10T00:07:28.971Z,96960.50
2023-02-10T00:11:13.013Z,96965.75
2023-02-10T00:14:55.658Z,96963.91
2023-02-10T00:18:38.370Z,96965.75
2023-02-10T00:22:21.030Z,96979.59
2023-02-10T00:26:09.173Z,96978.84
2023-02-10T00:29:52.394Z,96985.13
2023-02-10T00:33:35.166Z,96991.38
2023-02-10T00:37:17.947Z,96994.13
2023-02-10T00:41:05.774Z,96998.75
2023-02-10T00:44:48.450Z,97000.41
2023-02-10T00:48:31.135Z,96991.75
2023-02-10T00:52:13.817Z,97000.22
2023-02-10T00:55:57.119Z,97009.06
2023-02-10T00:59:41.308Z,97008.50
2023-02-10T01:03:27.144Z,97019.91
2023-02-10T01:07:09.868Z,97008.13
2023-02-10T01:11:00.313Z,97007.28
2023-02-10T01:14:44.599Z,97022.09
2023-02-10T01:18:27.403Z,97016.78
2023-02-10T01:22:10.050Z,97020.00
2023-02-10T01:25:52.699Z,97033.91
2023-02-10T01:29:35.515Z,97019.19
2023-02-10T01:33:19.528Z,97020.44
2023-02-10T01:37:02.208Z,97018.78
2023-02-10T01:40:45.493Z,97023.94
2023-02-10T01:45:05.584Z,97019.13
2023-02-10T01:48:52.056Z,97033.13
2023-02-10T01:52:34.948Z,97038.59
2023-02-10T01:56:17.959Z,97038.03
2023-02-10T02:00:02.725Z,97040.59
2023-02-10T02:03:45.386Z,97043.94
2023-02-10T02:07:31.806Z,97037.84
2023-02-10T02:11:19.182Z,97040.44
2023-02-10T02:15:04.639Z,97047.59
2023-02-10T02:18:49.823Z,97047.59
2023-02-10T02:22:50.430Z,97056.34
2023-02-10T02:27:02.712Z,97058.25
2023-02-10T02:30:59.014Z,97073.72
2023-02-10T02:34:48.591Z,97054.09
2023-02-10T02:38:31.369Z,97061.34
2023-02-10T02:42:18.244Z,97060.78
2023-02-10T02:46:05.049Z,97065.25
2023-02-10T02:49:55.784Z,97067.25
2023-02-10T02:53:42.540Z,97064.59
2023-02-10T02:57:30.957Z,97066.25
2023-02-10T03:01:16.393Z,97060.94
2023-02-10T03:05:00.672Z,97058.34
2023-02-10T03:08:43.476Z,97065.94
2023-02-10T03:12:26.135Z,97052.94
2023-02-10T03:16:08.898Z,97054.63
2023-02-10T03:19:51.716Z,97053.03
2023-02-10T03:23:35.965Z,97060.03
2023-02-10T03:27:18.616Z,97061.59
2023-02-10T03:31:04.463Z,97057.28
2023-02-10T03:34:47.410Z,97062.44
2023-02-10T03:38:30.443Z,97065.75
2023-02-10T03:42:14.910Z,97072.56
2023-02-10T03:46:00.665Z,97074.41
2023-02-10T03:49:43.388Z,97076.22
2023-02-10T03:53:26.217Z,97082.22
2023-02-10T03:57:08.963Z,97072.75
2023-02-10T04:00:53.116Z,97068.34
2023-02-10T04:04:35.875Z,97069.41
2023-02-10T04:08:18.814Z,97072.16
2023-02-10T04:12:01.572Z,97076.56
2023-02-10T04:15:44.352Z,97070.25
2023-02-10T04:19:28.437Z,97073.06
2023-02-10T04:23:11.161Z,97075.06
2023-02-10T04:26:53.866Z,97090.28
2023-02-10T04:30:36.616Z,97083.38
2023-02-10T04:34:19.296Z,97085.06
2023-02-10T04:38:04.386Z,97091.03
2023-02-10T04:41:51.270Z,97087.72
2023-02-10T04:45:34.036Z,97096.66
2023-02-10T04:49:17.173Z,97096.06
2023-02-10T04:52:59.882Z,97096.81
2023-02-10T04:56:43.937Z,97091.00
2023-02-10T05:00:26.886Z,97094.47
2023-02-10T05:04:09.898Z,97090.31
2023-02-10T05:07:52.686Z,97097.16
2023-02-10T05:11:37.861Z,97092.97
2023-02-10T05:15:22.164Z,97106.25
2023-02-10T05:19:04.853Z,97115.75
2023-02-10T05:22:47.523Z,97111.59
2023-02-10T05:26:30.264Z,97114.91
2023-02-10T05:30:15.012Z,97121.72
2023-02-10T05:33:59.058Z,97128.47
2023-02-10T05:37:43.019Z,97123.06
2023-02-10T05:41:26.225Z,97135.94
2023-02-10T05:45:10.662Z,97137.03
2023-02-10T05:48:53.361Z,97148.81
2023-02-10T05:52:37.417Z,97146.16
2023-02-10T05:56:20.098Z,97150.34
2023-02-10T06:00:03.637Z,97146.25
2023-02-10T06:03:46.329Z,97167.03
2023-02-10T06:07:29.103Z,97168.25
2023-02-10T06:11:13.420Z,97164.16
2023-02-10T06:14:56.174Z,97163.56
2023-02-10T06:18:39.313Z,97174.03
2023-02-10T06:22:21.958Z,97170.84
2023-02-10T06:26:04.770Z,97173.72
2023-02-10T06:29:49.359Z,97184.34
2023-02-10T06:33:32.051Z,97181.75
2023-02-10T06:37:14.686Z,97189.41
2023-02-10T06:40:57.319Z,97186.91
2023-02-10T06:44:40.179Z,97189.09
2023-02-10T06:48:24.153Z,97195.25
2023-02-10T06:52:16.879Z,97209.19
2023-02-10T06:56:00.183Z,97210.00
2023-02-10T06:59:44.204Z,97220.09
2023-02-10T07:03:31.900Z,97214.84
2023-02-10T07:07:16.987Z,97212.72
2023-02-10T07:10:59.688Z,97222.88
2023-02-10T07:14:43.503Z,97224.47
2023-02-10T07:18:28.923Z,97217.78
2023-02-10T07:22:12.929Z,97228.09
2023-02-10T07:25:55.594Z,97235.34
2023-02-10T07:29:38.493Z,97245.06
2023-02-10T07:33:21.137Z,97239.28
2023-02-10T07:37:03.770Z,97240.75
2023-02-10T07:40:50.892Z,97245.19
2023-02-10T07:44:33.618Z,97244.91
2023-02-10T07:48:16.338Z,97249.00
2023-02-10T07:51:59.396Z,97248.53
2023-02-10T07:55:42.089Z,97253.97
2023-02-10T07:59:26.425Z,97250.91
2023-02-10T08:03:13.918Z,97262.41
2023-02-10T08:07:00.667Z,97261.63
2023-02-10T08:10:44.040Z,97275.09
2023-02-10T08:14:28.420Z,97269.28
2023-02-10T08:18:11.139Z,97256.72
2023-02-10T08:21:53.824Z,97261.47
2023-02-10T08:25:36.769Z,97260.63
2023-02-10T08:29:19.492Z,97258.56
2023-02-10T08:33:03.580Z,97265.28
2023-02-10T08:36:46.850Z,97254.53
2023-02-10T08:40:29.593Z,97260.66
2023-02-10T08:44:13.625Z,97256.06
2023-02-10T08:47:56.293Z,97259.19
2023-02-10T08:51:40.565Z,97256.31
2023-02-10T08:55:23.337Z,97266.13
2023-02-10T08:59:06.069Z,97260.25
2023-02-10T09:02:50.746Z,97264.78
2023-02-10T09:06:39.946Z,97265.84
2023-02-10T09:10:24.226Z,97267.50
2023-02-10T09:14:06.950Z,97265.09
2023-02-10T09:17:49.757Z,97269.50
2023-02-10T09:21:45.778Z,97276.63
2023-02-10T09:25:30.803Z,97277.66
2023-02-10T09:29:13.635Z,97278.34
2023-02-10T09:32:56.672Z,97275.47
2023-02-10T09:36:39.542Z,97276.31
2023-02-10T09:40:24.806Z,97287.75
2023-02-10T09:44:13.373Z,97297.16
2023-02-10T09:48:03.842Z,97300.44
2023-02-10T09:51:55.414Z,97290.19
2023-02-10T09:55:40.075Z,97288.97
2023-02-10T09:59:26.301Z,97296.13
2023-02-10T10:03:15.146Z,97285.97
2023-02-10T10:07:06.343Z,97285.78
2023-02-10T10:10:49.723Z,97280.09
2023-02-10T10:14:37.813Z,97279.59
2023-02-10T10:18:26.842Z,97272.44
2023-02-10T10:22:21.157Z,97273.38
2023-02-10T10:26:14.198Z,97277.25
2023-02-10T10:30:04.564Z,97267.81
2023-02-10T10:33:52.045Z,97260.66
2023-02-10T10:37:34.758Z,97255.69
2023-02-10T10:41:17.954Z,97248.41
2023-02-10T10:45:07.386Z,97253.91
2023-02-10T10:48:50.129Z,97251.72
2023-02-10T10:52:36.513Z,97249.66
2023-02-10T10:56:24.042Z,97246.56
2023-02-10T11:00:18.297Z,97234.25
2023-02-10T11:04:08.596Z,97220.34
2023-02-10T11:07:54.020Z,97227.16
2023-02-10T11:11:39.720Z,97211.31
2023-02-10T11:15:42.765Z,97199.03
2023-02-10T11:19:27.632Z,97195.50
2023-02-10T11:23:16.499Z,97192.56
2023-02-10T11:27:01.256Z,97187.94
2023-02-10T11:30:49.001Z,97188.78
2023-02-10T11:34:33.400Z,97193.06
2023-02-10T11:38:20.519Z,97179.44
2023-02-10T11:42:13.235Z,97187.50
2023-02-10T11:45:59.537Z,97168.34
2023-02-10T11:49:45.269Z,97164.59
2023-02-10T11:53:30.444Z,97170.06
2023-02-10T11:57:55.448Z,97166.53
2023-02-10T12:01:51.397Z,97158.97
2023-02-10T12:05:40.149Z,97158.28
2023-02-10T12:09:29.617Z,97153.31
2023-02-10T12:13:20.353Z,97160.88
2023-02-10T12:17:20.805Z,97159.69
2023-02-10T12:21:15.106Z,97157.06
2023-02-10T12:25:08.564Z,97147.81
2023-02-10T12:28:59.411Z,97145.19
2023-02-10T12:32:50.915Z,97148.72
2023-02-10T12:36:39.505Z,97145.81
2023-02-10T12:40:41.277Z,97138.09
2023-02-10T12:44:36.521Z,97141.47
2023-02-10T12:48:27.138Z,97135.00
2023-02-10T12:52:13.366Z,97129.41
2023-02-10T12:55:59.073Z,97130.69
2023-02-10T12:59:49.748Z,97124.94
2023-02-10T13:03:36.094Z,97123.84
2023-02-10T13:07:26.229Z,97117.34
2023-02-10T13:11:12.504Z,97122.59
2023-02-10T13:15:00.621Z,97113.84
2023-02-10T13:18:53.567Z,97118.63
2023-02-10T13:22:43.516Z,97110.38
2023-02-10T13:26:37.556Z,97108.47
2023-02-10T13:30:35.401Z,97101.47
2023-02-10T13:34:22.390Z,97110.13
2023-02-10T13:38:10.038Z,97112.16
2023-02-10T13:42:04.391Z,97105.94
2023-02-10T13:45:51.559Z,97100.16
2023-02-10T13:49:36.416Z,97103.81
2023-02-10T13:53:31.273Z,97103.94
2023-02-10T13:57:29.105Z,97105.50
2023-02-10T14:01:31.360Z,97104.28
2023-02-10T14:05:27.611Z,97097.31
2023-02-10T14:09:20.984Z,97099.34
2023-02-10T14:13:06.920Z,97091.31
2023-02-10T14:16:51.834Z,97084.91
2023-02-10T14:20:38.475Z,97088.16
2023-02-10T14:24:27.192Z,97103.03
2023-02-10T14:28:22.277Z,97103.59
2023-02-10T14:32:07.078Z,97099.78
2023-02-10T14:35:56.441Z,97102.41
2023-02-10T14:39:39.160Z,97110.22
2023-02-10T14:43:27.284Z,97116.25
2023-02-10T14:47:17.316Z,97105.09
2023-02-10T14:51:05.519Z,97107.13
2023-02-10T14:54:48.258Z,97104.56
2023-02-10T14:58:30.958Z,97098.56
2023-02-10T15:02:19.327Z,97100.97
2023-02-10T15:06:03.792Z,97110.72
2023-02-10T15:09:46.837Z,97097.38
2023-02-10T15:13:33.768Z,97097.00
2023-02-10T15:17:18.344Z,97094.00
2023-02-10T15:21:03.510Z,97106.91
2023-02-10T15:24:46.225Z,97096.56
2023-02-10T15:28:30.153Z,97112.66
2023-02-10T15:32:17.996Z,97106.47
2023-02-10T15:36:13.038Z,97120.81
2023-02-10T15:39:58.073Z,97110.94
2023-02-10T15:43:50.237Z,97107.59
2023-02-10T15:47:44.029Z,97117.00
2023-02-10T15:51:29.445Z,97116.41
2023-02-10T15:55:23.191Z,97117.25
2023-02-10T15:59:10.277Z,97109.81
2023-02-10T16:02:53.400Z,97121.38
2023-02-10T16:06:38.005Z,97128.28
2023-02-10T16:10:22.602Z,97126.78
2023-02-10T16:14:05.278Z,97127.91
2023-02-10T16:17:50.056Z,97135.97
2023-02-10T16:21:32.691Z,97143.38
2023-02-10T16:25:20.355Z,97150.97
2023-02-10T16:29:03.032Z,97143.16
2023-02-10T16:32:46.072Z,97144.34
2023-02-10T16:36:28.756Z,97154.09
2023-02-10T16:40:18.187Z,97163.72
2023-02-10T16:44:00.876Z,97165.88
2023-02-10T16:47:46.169Z,97165.47
2023-02-10T16:51:29.117Z,97176.94
2023-02-10T16:55:11.977Z,97173.03
2023-02-10T16:58:56.107Z,97175.06
2023-02-10T17:02:39.384Z,97190.22
2023-02-10T17:06:23.269Z,97185.25
2023-02-10T17:10:07.124Z,97181.25
2023-02-10T17:13:49.805Z,97189.00
2023-02-10T17:17:33.799Z,97187.81
2023-02-10T17:21:16.509Z,97196.22
2023-02-10T17:25:01.037Z,97195.63
2023-02-10T17:28:45.422Z,97196.69
2023-02-10T17:32:28.131Z,97193.00
2023-02-10T17:36:12.765Z,97187.53
2023-02-10T17:40:11.916Z,97201.00
2023-02-10T17:43:57.244Z,97203.09
2023-02-10T17:47:39.941Z,97203.94
2023-02-10T17:51:25.007Z,97199.78
2023-02-10T17:55:20.709Z,97215.84
2023-02-10T17:59:04.513Z,97219.59
2023-02-10T18:02:47.173Z,97216.28
2023-02-10T18:06:31.331Z,97213.19
2023-02-10T18:10:14.158Z,97223.81
2023-02-10T18:13:57.375Z,97222.41
2023-02-10T18:17:43.817Z,97221.69
2023-02-10T18:21:26.460Z,97209.34
2023-02-10T18:25:13.719Z,97215.00
2023-02-10T18:28:56.420Z,97213.78
2023-02-10T18:32:42.071Z,97206.63
2023-02-10T18:36:24.749Z,97197.09
2023-02-10T18:40:08.368Z,97205.97
2023-02-10T18:43:52.433Z,97204.88
2023-02-10T18:47:35.097Z,97196.25
2023-02-10T18:51:21.658Z,97203.53
2023-02-10T18:55:05.182Z,97199.81
2023-02-10T18:58:48.102Z,97193.69
2023-02-10T19:02:32.235Z,97194.53
2023-02-10T19:06:15.186Z,97197.75
2023-02-10T19:09:57.805Z,97181.78
2023-02-10T19:13:42.615Z,97189.06
2023-02-10T19:17:25.268Z,97200.28
2023-02-10T19:21:12.287Z,97203.78
2023-02-10T19:24:54.953Z,97195.69
2023-02-10T19:28:37.835Z,97197.13
2023-02-10T19:32:20.545Z,97203.88
2023-02-10T19:36:03.403Z,97208.13
2023-02-10T19:39:47.549Z,97210.38
2023-02-10T19:43:30.564Z,97221.16
2023-02-10T19:47:13.223Z,97225.09
2023-02-10T19:50:56.260Z,97221.56
2023-02-10T19:54:38.952Z,97227.78
2023-02-10T19:58:25.281Z,97216.97
2023-02-10T20:02:08.077Z,97213.19
2023-02-10T20:05:51.078Z,97216.47
2023-02-10T20:09:34.150Z,97216.78
2023-02-10T20:13:19.620Z,97223.09
2023-02-10T20:17:03.929Z,97230.13
2023-02-10T20:20:52.263Z,97226.91
2023-02-10T20:24:34.861Z,97233.00
2023-02-10T20:28:18.208Z,97226.47
2023-02-10T20:32:01.236Z,97228.59
2023-02-10T20:35:46.141Z,97224.44
2023-02-10T20:39:28.819Z,97226.31
2023-02-10T20:43:11.532Z,97224.44
2023-02-10T20:46:54.221Z,97229.53
2023-02-10T20:50:36.892Z,97227.34
2023-02-10T20:54:20.976Z,97234.56
2023-02-10T20:58:03.725Z,97227.53
2023-02-10T21:01:51.234Z,97227.97
2023-02-10T21:05:35.253Z,97228.47
2023-02-10T21:09:17.897Z,97231.22
2023-02-10T21:13:02.031Z,97234.19
2023-02-10T21:16:44.710Z,97229.22
2023-02-10T21:20:27.361Z,97221.94
2023-02-10T21:24:10.043Z,97231.81
2023-02-10T21:27:52.718Z,97227.47
2023-02-10T21:31:37.737Z,97221.47
2023-02-10T21:35:20.436Z,97217.78
2023-02-10T21:39:06.417Z,97200.78
2023-02-10T21:42:49.078Z,97201.34
2023-02-10T21:46:31.793Z,97203.19
2023-02-10T21:50:16.924Z,97185.19
2023-02-10T21:53:59.577Z,97189.25
2023-02-10T21:57:42.324Z,97184.91
2023-02-10T22:01:25.100Z,97180.81
2023-02-10T22:05:08.426Z,97178.03
2023-02-10T22:08:58.563Z,97162.81
2023-02-10T22:12:41.266Z,97168.91
2023-02-10T22:16:24.000Z,97181.94
2023-02-10T22:20:07.318Z,97174.91
2023-02-10T22:23:52.142Z,97172.50
2023-02-10T22:27:34.759Z,97163.09
2023-02-10T22:31:18.991Z,97169.09
2023-02-10T22:35:01.664Z,97154.22
2023-02-10T22:38:44.356Z,97165.66
2023-02-10T22:42:28.381Z,97157.91
2023-02-10T22:46:11.732Z,97163.28
2023-02-10T22:49:57.198Z,97159.94
2023-02-10T22:53:40.110Z,97161.78
2023-02-10T22:57:22.824Z,97161.78
2023-02-10T23:01:07.344Z,97168.06
2023-02-10T23:04:50.207Z,97165.03
2023-02-10T23:08:33.145Z,97157.56
2023-02-10T23:12:16.013Z,97154.41
2023-02-10T23:15:59.100Z,97157.19
2023-02-10T23:19:43.227Z,97151.28
2023-02-10T23:23:25.935Z,97154.78
2023-02-10T23:27:08.595Z,97150.63
2023-02-10T23:30:51.366Z,97163.47
2023-02-10T23:34:34.020Z,97157.91
2023-02-10T23:38:20.160Z,97157.38
2023-02-10T23:42:03.271Z,97150.81
2023-02-10T23:45:47.172Z,97154.78
2023-02-10T23:49:30.140Z,97164.94
2023-02-10T23:53:16.737Z,97168.44
2023-02-10T23:57:03.534Z,97167.31
